sensor_id;sensor_type;location;lat;lon;timestamp;pressure;altitude;pressure_sealevel;temperature;humidity
20037;BME280;10179;42.640;23.312;2023-02-19T00:01:54;93954.78;;;12.77;36.48
20037;BME280;10179;42.640;23.312;2023-02-19T00:04:20;93968.09;;;12.82;36.58
20037;BME280;10179;42.640;23.312;2023-02-19T00:06:47;93955.22;;;12.74;36.74
20037;BME280;10179;42.640;23.312;2023-02-19T00:09:15;93967.63;;;12.61;36.97
20037;BME280;10179;42.640;23.312;2023-02-19T00:11:41;93937.94;;;12.31;36.99
20037;BME280;10179;42.640;23.312;2023-02-19T00:14:07;93963.25;;;12.55;37.03
20037;BME280;10179;42.640;23.312;2023-02-19T00:16:37;93963.84;;;12.57;37.13
20037;BME280;10179;42.640;23.312;2023-02-19T00:19:06;93954.81;;;12.53;37.14
20037;BME280;10179;42.640;23.312;2023-02-19T00:21:32;93887.78;;;12.14;37.10
20037;BME280;10179;42.640;23.312;2023-02-19T00:24:00;93956.50;;;12.48;37.35
20037;BME280;10179;42.640;23.312;2023-02-19T00:26:27;93938.53;;;12.45;37.28
20037;BME280;10179;42.640;23.312;2023-02-19T00:28:53;93891.53;;;12.06;37.29
20037;BME280;10179;42.640;23.312;2023-02-19T00:31:24;93927.09;;;12.39;37.49
20037;BME280;10179;42.640;23.312;2023-02-19T00:33:53;93931.88;;;12.42;37.03
20037;BME280;10179;42.640;23.312;2023-02-19T00:36:19;93943.09;;;12.37;37.42
20037;BME280;10179;42.640;23.312;2023-02-19T00:38:45;93944.13;;;12.36;37.43
20037;BME280;10179;42.640;23.312;2023-02-19T00:41:12;93912.63;;;12.30;37.41
20037;BME280;10179;42.640;23.312;2023-02-19T00:43:53;93933.94;;;12.40;37.50
20037;BME280;10179;42.640;23.312;2023-02-19T00:46:28;93943.78;;;12.33;37.33
20037;BME280;10179;42.640;23.312;2023-02-19T00:48:55;93945.16;;;12.24;37.57
20037;BME280;10179;42.640;23.312;2023-02-19T00:51:22;93931.53;;;12.15;37.85
20037;BME280;10179;42.640;23.312;2023-02-19T00:53:49;93925.91;;;12.11;37.72
20037;BME280;10179;42.640;23.312;2023-02-19T00:56:14;93903.09;;;11.93;37.81
20037;BME280;10179;42.640;23.312;2023-02-19T00:58:40;93927.84;;;12.04;38.27
20037;BME280;10179;42.640;23.312;2023-02-19T01:01:06;93881.19;;;11.81;38.26
20037;BME280;10179;42.640;23.312;2023-02-19T01:03:35;93919.94;;;12.04;38.35
20037;BME280;10179;42.640;23.312;2023-02-19T01:06:02;93899.88;;;11.91;38.13
20037;BME280;10179;42.640;23.312;2023-02-19T01:08:29;93890.25;;;11.85;38.24
20037;BME280;10179;42.640;23.312;2023-02-19T01:10:58;93900.00;;;11.97;38.23
20037;BME280;10179;42.640;23.312;2023-02-19T01:13:23;93865.06;;;11.78;38.57
20037;BME280;10179;42.640;23.312;2023-02-19T01:15:49;93878.22;;;11.78;38.59
20037;BME280;10179;42.640;23.312;2023-02-19T01:18:15;93915.97;;;11.83;38.62
20037;BME280;10179;42.640;23.312;2023-02-19T01:20:42;93866.41;;;11.68;38.63
20037;BME280;10179;42.640;23.312;2023-02-19T01:23:10;93887.03;;;11.83;38.48
20037;BME280;10179;42.640;23.312;2023-02-19T01:25:39;93904.06;;;11.81;38.51
20037;BME280;10179;42.640;23.312;2023-02-19T01:28:05;93905.09;;;11.80;38.49
20037;BME280;10179;42.640;23.312;2023-02-19T01:30:36;93908.91;;;11.84;38.60
20037;BME280;10179;42.640;23.312;2023-02-19T01:33:06;93930.38;;;11.81;38.78
20037;BME280;10179;42.640;23.312;2023-02-19T01:35:33;93948.66;;;11.76;38.44
20037;BME280;10179;42.640;23.312;2023-02-19T01:38:02;93894.72;;;11.55;38.53
20037;BME280;10179;42.640;23.312;2023-02-19T01:40:27;93941.34;;;11.78;38.61
20037;BME280;10179;42.640;23.312;2023-02-19T01:42:53;93938.72;;;11.78;38.61
20037;BME280;10179;42.640;23.312;2023-02-19T01:45:28;93959.78;;;11.78;38.62
20037;BME280;10179;42.640;23.312;2023-02-19T01:48:00;93940.56;;;11.77;38.62
20037;BME280;10179;42.640;23.312;2023-02-19T01:50:27;93946.72;;;11.71;38.76
20037;BME280;10179;42.640;23.312;2023-02-19T01:52:54;93908.34;;;11.21;38.87
20037;BME280;10179;42.640;23.312;2023-02-19T01:55:19;93917.53;;;11.12;39.15
20037;BME280;10179;42.640;23.312;2023-02-19T01:57:51;93966.84;;;11.47;39.15
20037;BME280;10179;42.640;23.312;2023-02-19T02:00:17;93956.41;;;11.40;39.36
20037;BME280;10179;42.640;23.312;2023-02-19T02:02:48;93799.25;;;10.34;39.51
20037;BME280;10179;42.640;23.312;2023-02-19T02:05:24;93958.41;;;11.45;39.27
20037;BME280;10179;42.640;23.312;2023-02-19T02:07:52;93915.69;;;11.31;39.29
20037;BME280;10179;42.640;23.312;2023-02-19T02:10:37;93922.91;;;11.36;39.20
20037;BME280;10179;42.640;23.312;2023-02-19T02:13:02;93918.25;;;11.38;39.28
20037;BME280;10179;42.640;23.312;2023-02-19T02:15:38;93926.75;;;11.52;39.22
20037;BME280;10179;42.640;23.312;2023-02-19T02:23:37;93959.31;;;11.69;38.87
20037;BME280;10179;42.640;23.312;2023-02-19T02:26:24;93937.56;;;11.74;38.84
20037;BME280;10179;42.640;23.312;2023-02-19T02:31:27;93951.19;;;11.70;38.71
20037;BME280;10179;42.640;23.312;2023-02-19T02:34:06;93893.06;;;11.30;38.75
20037;BME280;10179;42.640;23.312;2023-02-19T02:36:38;93963.63;;;11.63;38.76
20037;BME280;10179;42.640;23.312;2023-02-19T02:39:07;93938.53;;;11.49;38.76
20037;BME280;10179;42.640;23.312;2023-02-19T02:41:34;93962.31;;;11.54;38.64
20037;BME280;10179;42.640;23.312;2023-02-19T02:44:04;93951.06;;;11.47;39.10
20037;BME280;10179;42.640;23.312;2023-02-19T02:46:34;93968.31;;;11.43;38.97
20037;BME280;10179;42.640;23.312;2023-02-19T02:49:08;93939.28;;;11.19;39.39
20037;BME280;10179;42.640;23.312;2023-02-19T02:51:42;93957.69;;;11.19;39.44
20037;BME280;10179;42.640;23.312;2023-02-19T02:54:13;93744.25;;;9.84;39.67
20037;BME280;10179;42.640;23.312;2023-02-19T02:56:59;93929.81;;;11.00;39.69
20037;BME280;10179;42.640;23.312;2023-02-19T02:59:29;93961.72;;;11.04;39.83
20037;BME280;10179;42.640;23.312;2023-02-19T03:02:03;93944.78;;;10.99;40.06
20037;BME280;10179;42.640;23.312;2023-02-19T03:04:57;93945.59;;;11.00;40.15
20037;BME280;10179;42.640;23.312;2023-02-19T03:07:55;93949.25;;;10.99;40.21
20037;BME280;10179;42.640;23.312;2023-02-19T03:10:27;93948.97;;;10.89;40.10
20037;BME280;10179;42.640;23.312;2023-02-19T03:12:58;93935.03;;;10.88;40.26
20037;BME280;10179;42.640;23.312;2023-02-19T03:15:46;93932.53;;;10.75;40.35
20037;BME280;10179;42.640;23.312;2023-02-19T03:18:36;93963.09;;;10.88;40.41
20037;BME280;10179;42.640;23.312;2023-02-19T03:21:33;93914.69;;;10.40;40.59
20037;BME280;10179;42.640;23.312;2023-02-19T03:24:01;93964.06;;;10.75;40.56
20037;BME280;10179;42.640;23.312;2023-02-19T03:27:07;93951.28;;;10.60;40.72
20037;BME280;10179;42.640;23.312;2023-02-19T03:29:36;93937.53;;;10.40;40.63
20037;BME280;10179;42.640;23.312;2023-02-19T03:32:09;93988.63;;;10.81;40.75
20037;BME280;10179;42.640;23.312;2023-02-19T03:35:00;93997.72;;;10.85;40.70
20037;BME280;10179;42.640;23.312;2023-02-19T03:37:29;93911.47;;;10.38;40.73
20037;BME280;10179;42.640;23.312;2023-02-19T03:39:56;94004.28;;;10.94;40.55
20037;BME280;10179;42.640;23.312;2023-02-19T03:42:37;93994.50;;;11.01;40.40
20037;BME280;10179;42.640;23.312;2023-02-19T03:47:53;94004.88;;;11.14;40.14
20037;BME280;10179;42.640;23.312;2023-02-19T03:50:28;93994.78;;;11.11;40.08
20037;BME280;10179;42.640;23.312;2023-02-19T03:53:13;93994.22;;;11.09;40.21
20037;BME280;10179;42.640;23.312;2023-02-19T03:56:15;94004.44;;;11.17;40.10
20037;BME280;10179;42.640;23.312;2023-02-19T03:59:02;93954.34;;;10.75;40.24
20037;BME280;10179;42.640;23.312;2023-02-19T04:01:31;93799.00;;;9.73;40.39
20037;BME280;10179;42.640;23.312;2023-02-19T04:04:08;94008.31;;;10.96;40.52
20037;BME280;10179;42.640;23.312;2023-02-19T04:06:37;94021.56;;;11.02;40.26
20037;BME280;10179;42.640;23.312;2023-02-19T04:09:08;94014.53;;;11.02;40.38
20037;BME280;10179;42.640;23.312;2023-02-19T04:11:35;93872.59;;;10.03;40.32
20037;BME280;10179;42.640;23.312;2023-02-19T04:14:07;94020.78;;;11.01;40.54
20037;BME280;10179;42.640;23.312;2023-02-19T04:16:37;94018.38;;;10.99;40.42
20037;BME280;10179;42.640;23.312;2023-02-19T04:19:09;94028.09;;;10.99;40.53
20037;BME280;10179;42.640;23.312;2023-02-19T04:21:36;94017.28;;;10.89;40.51
20037;BME280;10179;42.640;23.312;2023-02-19T04:24:06;93972.28;;;10.60;40.48
20037;BME280;10179;42.640;23.312;2023-02-19T04:26:34;94030.19;;;10.90;40.63
20037;BME280;10179;42.640;23.312;2023-02-19T04:29:00;93947.78;;;10.41;40.69
20037;BME280;10179;42.640;23.312;2023-02-19T04:31:27;93942.78;;;10.40;40.68
20037;BME280;10179;42.640;23.312;2023-02-19T04:33:54;94034.22;;;10.93;40.59
20037;BME280;10179;42.640;23.312;2023-02-19T04:36:19;93953.84;;;10.42;40.65
20037;BME280;10179;42.640;23.312;2023-02-19T04:38:44;93972.78;;;10.50;40.63
20037;BME280;10179;42.640;23.312;2023-02-19T04:41:10;94028.78;;;10.88;40.83
20037;BME280;10179;42.640;23.312;2023-02-19T04:43:35;94008.16;;;10.66;40.65
20037;BME280;10179;42.640;23.312;2023-02-19T04:46:01;94036.66;;;10.88;40.66
20037;BME280;10179;42.640;23.312;2023-02-19T04:48:27;94023.81;;;10.80;40.64
20037;BME280;10179;42.640;23.312;2023-02-19T04:50:53;94039.88;;;10.90;40.80
20037;BME280;10179;42.640;23.312;2023-02-19T04:53:18;94024.03;;;10.78;40.79
20037;BME280;10179;42.640;23.312;2023-02-19T04:55:44;94037.22;;;10.96;40.70
20037;BME280;10179;42.640;23.312;2023-02-19T04:58:09;94020.09;;;10.87;40.59
20037;BME280;10179;42.640;23.312;2023-02-19T05:00:34;94036.13;;;11.04;40.39
20037;BME280;10179;42.640;23.312;2023-02-19T05:03:00;94038.91;;;11.09;40.37
20037;BME280;10179;42.640;23.312;2023-02-19T05:05:25;94042.09;;;11.11;40.38
20037;BME280;10179;42.640;23.312;2023-02-19T05:07:51;94024.44;;;11.00;40.35
20037;BME280;10179;42.640;23.312;2023-02-19T05:10:16;94030.72;;;11.17;40.33
20037;BME280;10179;42.640;23.312;2023-02-19T05:12:42;94026.19;;;11.25;40.73
20037;BME280;10179;42.640;23.312;2023-02-19T05:15:07;94038.97;;;11.39;41.32
20037;BME280;10179;42.640;23.312;2023-02-19T05:17:33;94032.63;;;11.65;41.39
20037;BME280;10179;42.640;23.312;2023-02-19T05:19:59;94031.25;;;11.93;40.89
20037;BME280;10179;42.640;23.312;2023-02-19T05:22:24;94036.28;;;12.25;40.31
20037;BME280;10179;42.640;23.312;2023-02-19T05:24:50;94044.13;;;12.55;39.87
20037;BME280;10179;42.640;23.312;2023-02-19T05:27:15;93972.06;;;12.37;39.54
20037;BME280;10179;42.640;23.312;2023-02-19T05:29:41;94044.28;;;13.07;39.13
20037;BME280;10179;42.640;23.312;2023-02-19T05:32:06;94047.16;;;13.29;38.44
20037;BME280;10179;42.640;23.312;2023-02-19T05:34:31;93744.69;;;11.61;37.98
20037;BME280;10179;42.640;23.312;2023-02-19T05:36:57;94044.78;;;13.68;37.61
20037;BME280;10179;42.640;23.312;2023-02-19T05:39:22;94045.13;;;13.83;37.33
20037;BME280;10179;42.640;23.312;2023-02-19T05:41:48;94059.16;;;14.00;36.90
20037;BME280;10179;42.640;23.312;2023-02-19T05:44:13;94065.78;;;14.15;36.67
20037;BME280;10179;42.640;23.312;2023-02-19T05:46:38;94055.38;;;14.25;36.48
20037;BME280;10179;42.640;23.312;2023-02-19T05:49:04;94032.66;;;14.24;36.24
20037;BME280;10179;42.640;23.312;2023-02-19T05:51:29;94036.69;;;14.43;36.11
20037;BME280;10179;42.640;23.312;2023-02-19T05:53:55;94035.53;;;14.51;35.87
20037;BME280;10179;42.640;23.312;2023-02-19T05:58:53;94059.25;;;14.79;35.64
20037;BME280;10179;42.640;23.312;2023-02-19T06:01:21;94066.53;;;14.89;35.47
20037;BME280;10179;42.640;23.312;2023-02-19T06:03:47;94071.50;;;15.02;35.36
20037;BME280;10179;42.640;23.312;2023-02-19T06:06:13;94074.84;;;15.15;34.92
20037;BME280;10179;42.640;23.312;2023-02-19T06:08:39;94076.38;;;15.27;34.66
20037;BME280;10179;42.640;23.312;2023-02-19T06:11:04;94079.72;;;15.40;34.88
20037;BME280;10179;42.640;23.312;2023-02-19T06:13:30;94004.75;;;14.95;34.69
20037;BME280;10179;42.640;23.312;2023-02-19T06:15:55;94091.63;;;15.59;34.44
20037;BME280;10179;42.640;23.312;2023-02-19T06:18:21;94064.72;;;15.45;34.01
20037;BME280;10179;42.640;23.312;2023-02-19T06:20:46;94097.72;;;15.77;33.98
20037;BME280;10179;42.640;23.312;2023-02-19T06:23:12;94024.31;;;15.33;33.84
20037;BME280;10179;42.640;23.312;2023-02-19T06:25:37;94095.38;;;15.80;33.39
20037;BME280;10179;42.640;23.312;2023-02-19T06:28:03;94055.38;;;15.60;33.35
20037;BME280;10179;42.640;23.312;2023-02-19T06:30:29;94065.81;;;15.66;33.49
20037;BME280;10179;42.640;23.312;2023-02-19T06:32:54;94073.00;;;15.71;33.43
20037;BME280;10179;42.640;23.312;2023-02-19T06:35:20;94104.00;;;15.92;33.24
20037;BME280;10179;42.640;23.312;2023-02-19T06:37:46;94084.84;;;15.85;33.17
20037;BME280;10179;42.640;23.312;2023-02-19T06:40:11;94095.50;;;15.90;33.07
20037;BME280;10179;42.640;23.312;2023-02-19T06:42:37;94099.31;;;15.99;33.06
20037;BME280;10179;42.640;23.312;2023-02-19T06:45:02;94090.38;;;16.06;32.76
20037;BME280;10179;42.640;23.312;2023-02-19T06:47:31;94037.84;;;15.75;32.66
20037;BME280;10179;42.640;23.312;2023-02-19T06:49:58;94072.09;;;16.04;32.73
20037;BME280;10179;42.640;23.312;2023-02-19T06:52:23;94105.97;;;16.24;32.57
20037;BME280;10179;42.640;23.312;2023-02-19T06:54:49;94101.34;;;16.36;32.51
20037;BME280;10179;42.640;23.312;2023-02-19T06:57:14;94114.25;;;16.55;32.46
20037;BME280;10179;42.640;23.312;2023-02-19T06:59:40;94096.63;;;16.70;32.20
20037;BME280;10179;42.640;23.312;2023-02-19T07:02:06;94088.91;;;16.69;31.72
20037;BME280;10179;42.640;23.312;2023-02-19T07:04:31;94112.00;;;16.96;31.59
20037;BME280;10179;42.640;23.312;2023-02-19T07:06:57;94109.97;;;17.08;31.14
20037;BME280;10179;42.640;23.312;2023-02-19T07:09:24;94104.72;;;17.13;30.99
20037;BME280;10179;42.640;23.312;2023-02-19T07:11:49;94105.88;;;17.27;30.83
20037;BME280;10179;42.640;23.312;2023-02-19T07:14:15;94054.75;;;17.05;30.66
20037;BME280;10179;42.640;23.312;2023-02-19T07:16:41;94115.91;;;17.57;30.90
20037;BME280;10179;42.640;23.312;2023-02-19T07:19:06;94113.06;;;17.69;30.66
20037;BME280;10179;42.640;23.312;2023-02-19T07:21:32;94100.94;;;17.83;30.04
20037;BME280;10179;42.640;23.312;2023-02-19T07:24:02;94047.13;;;17.61;30.09
20037;BME280;10179;42.640;23.312;2023-02-19T07:26:28;94109.56;;;18.11;29.63
20037;BME280;10179;42.640;23.312;2023-02-19T07:28:53;94103.47;;;18.21;29.34
20037;BME280;10179;42.640;23.312;2023-02-19T07:31:20;94105.91;;;18.27;29.44
20037;BME280;10179;42.640;23.312;2023-02-19T07:33:47;94096.09;;;18.33;28.92
20037;BME280;10179;42.640;23.312;2023-02-19T07:36:13;94099.50;;;18.28;28.84
20037;BME280;10179;42.640;23.312;2023-02-19T07:38:39;94064.63;;;18.09;28.91
20037;BME280;10179;42.640;23.312;2023-02-19T07:41:05;94089.69;;;18.29;29.06
20037;BME280;10179;42.640;23.312;2023-02-19T07:43:35;94091.06;;;18.42;28.88
20037;BME280;10179;42.640;23.312;2023-02-19T07:46:03;94066.59;;;18.45;28.69
20037;BME280;10179;42.640;23.312;2023-02-19T07:48:28;94051.16;;;18.42;28.40
20037;BME280;10179;42.640;23.312;2023-02-19T07:50:57;94061.84;;;18.62;28.33
20037;BME280;10179;42.640;23.312;2023-02-19T07:53:24;94077.28;;;18.65;28.78
20037;BME280;10179;42.640;23.312;2023-02-19T07:55:50;94073.28;;;18.63;28.67
20037;BME280;10179;42.640;23.312;2023-02-19T07:58:15;94055.19;;;18.54;28.78
20037;BME280;10179;42.640;23.312;2023-02-19T08:00:41;94067.75;;;18.90;28.42
20037;BME280;10179;42.640;23.312;2023-02-19T08:03:07;94018.22;;;18.68;28.43
20037;BME280;10179;42.640;23.312;2023-02-19T08:05:36;94020.63;;;19.00;28.17
20037;BME280;10179;42.640;23.312;2023-02-19T08:08:05;94074.06;;;19.60;27.82
20037;BME280;10179;42.640;23.312;2023-02-19T08:10:31;94043.19;;;19.49;27.47
20037;BME280;10179;42.640;23.312;2023-02-19T08:13:15;94072.75;;;19.68;27.73
20037;BME280;10179;42.640;23.312;2023-02-19T08:15:48;94068.22;;;19.73;27.82
20037;BME280;10179;42.640;23.312;2023-02-19T08:18:15;94025.59;;;19.48;28.02
20037;BME280;10179;42.640;23.312;2023-02-19T08:20:42;94065.00;;;19.76;28.08
20037;BME280;10179;42.640;23.312;2023-02-19T08:23:08;94021.88;;;19.49;27.89
20037;BME280;10179;42.640;23.312;2023-02-19T08:25:33;94066.88;;;19.71;28.01
20037;BME280;10179;42.640;23.312;2023-02-19T08:27:59;94063.41;;;19.70;28.20
20037;BME280;10179;42.640;23.312;2023-02-19T08:30:26;94071.91;;;19.77;28.06
20037;BME280;10179;42.640;23.312;2023-02-19T08:32:52;94070.31;;;19.87;27.86
20037;BME280;10179;42.640;23.312;2023-02-19T08:35:18;94064.66;;;19.98;27.84
20037;BME280;10179;42.640;23.312;2023-02-19T08:37:43;94059.53;;;20.07;27.81
20037;BME280;10179;42.640;23.312;2023-02-19T08:40:09;94036.63;;;20.06;27.36
20037;BME280;10179;42.640;23.312;2023-02-19T08:42:35;94058.41;;;20.23;27.42
20037;BME280;10179;42.640;23.312;2023-02-19T08:45:00;94061.81;;;20.39;27.23
20037;BME280;10179;42.640;23.312;2023-02-19T08:47:25;93978.50;;;20.03;27.09
20037;BME280;10179;42.640;23.312;2023-02-19T08:49:51;94044.41;;;20.42;27.03
20037;BME280;10179;42.640;23.312;2023-02-19T08:52:16;94024.81;;;20.22;27.03
20037;BME280;10179;42.640;23.312;2023-02-19T08:54:42;93989.94;;;20.03;26.85
20037;BME280;10179;42.640;23.312;2023-02-19T08:57:07;94033.75;;;20.42;26.60
20037;BME280;10179;42.640;23.312;2023-02-19T08:59:32;94039.94;;;20.37;26.76
20037;BME280;10179;42.640;23.312;2023-02-19T09:01:58;94014.13;;;20.22;27.05
20037;BME280;10179;42.640;23.312;2023-02-19T09:04:23;94015.19;;;20.21;27.25
20037;BME280;10179;42.640;23.312;2023-02-19T09:06:49;94021.84;;;20.29;27.84
20037;BME280;10179;42.640;23.312;2023-02-19T09:09:15;94018.34;;;20.29;27.84
20037;BME280;10179;42.640;23.312;2023-02-19T09:11:41;94020.75;;;20.30;27.66
20037;BME280;10179;42.640;23.312;2023-02-19T09:14:06;94025.31;;;20.30;27.70
20037;BME280;10179;42.640;23.312;2023-02-19T09:16:35;94007.13;;;20.32;27.93
20037;BME280;10179;42.640;23.312;2023-02-19T09:19:01;94021.31;;;20.27;27.58
20037;BME280;10179;42.640;23.312;2023-02-19T09:21:27;94005.59;;;20.20;27.77
20037;BME280;10179;42.640;23.312;2023-02-19T09:23:52;94009.59;;;20.23;27.68
20037;BME280;10179;42.640;23.312;2023-02-19T09:26:18;93987.53;;;20.12;27.35
20037;BME280;10179;42.640;23.312;2023-02-19T09:28:43;93999.72;;;20.23;27.69
20037;BME280;10179;42.640;23.312;2023-02-19T09:31:14;93992.25;;;20.20;27.65
20037;BME280;10179;42.640;23.312;2023-02-19T09:33:44;94003.72;;;20.21;27.59
20037;BME280;10179;42.640;23.312;2023-02-19T09:36:11;94013.59;;;20.25;27.53
20037;BME280;10179;42.640;23.312;2023-02-19T09:38:37;94009.84;;;20.26;27.26
20037;BME280;10179;42.640;23.312;2023-02-19T09:41:30;94004.94;;;20.39;27.26
20037;BME280;10179;42.640;23.312;2023-02-19T09:43:57;94025.31;;;20.24;26.74
20037;BME280;10179;42.640;23.312;2023-02-19T09:46:27;94013.00;;;20.29;26.92
20037;BME280;10179;42.640;23.312;2023-02-19T09:49:06;94007.13;;;20.32;27.02
20037;BME280;10179;42.640;23.312;2023-02-19T09:51:35;93958.50;;;20.06;26.97
20037;BME280;10179;42.640;23.312;2023-02-19T09:54:03;94013.50;;;20.36;26.81
20037;BME280;10179;42.640;23.312;2023-02-19T09:56:30;93984.25;;;20.20;26.98
20037;BME280;10179;42.640;23.312;2023-02-19T09:58:57;93988.69;;;20.35;27.11
20037;BME280;10179;42.640;23.312;2023-02-19T10:01:26;93982.25;;;20.46;26.76
20037;BME280;10179;42.640;23.312;2023-02-19T10:03:53;93976.59;;;20.53;26.84
20037;BME280;10179;42.640;23.312;2023-02-19T10:06:24;93971.75;;;20.60;26.71
20037;BME280;10179;42.640;23.312;2023-02-19T10:08:52;93931.06;;;20.39;26.62
20037;BME280;10179;42.640;23.312;2023-02-19T10:11:21;93923.31;;;20.38;26.47
20037;BME280;10179;42.640;23.312;2023-02-19T10:16:35;93947.16;;;20.63;26.35
20037;BME280;10179;42.640;23.312;2023-02-19T10:19:05;93914.22;;;20.44;26.41
20037;BME280;10179;42.640;23.312;2023-02-19T10:21:33;93958.84;;;20.72;26.42
20037;BME280;10179;42.640;23.312;2023-02-19T10:24:01;93925.78;;;20.68;26.15
20037;BME280;10179;42.640;23.312;2023-02-19T10:26:28;93894.94;;;20.52;26.04
20037;BME280;10179;42.640;23.312;2023-02-19T10:28:59;93936.84;;;20.86;26.08
20037;BME280;10179;42.640;23.312;2023-02-19T10:31:24;93948.06;;;20.83;26.16
20037;BME280;10179;42.640;23.312;2023-02-19T10:33:52;93923.69;;;20.60;26.15
20037;BME280;10179;42.640;23.312;2023-02-19T10:36:30;93875.34;;;20.33;26.67
20037;BME280;10179;42.640;23.312;2023-02-19T10:38:56;93921.25;;;20.64;26.71
20037;BME280;10179;42.640;23.312;2023-02-19T10:41:26;93844.41;;;20.32;26.63
20037;BME280;10179;42.640;23.312;2023-02-19T10:44:22;93899.00;;;20.79;26.27
20037;BME280;10179;42.640;23.312;2023-02-19T10:46:52;93907.50;;;20.52;26.59
20037;BME280;10179;42.640;23.312;2023-02-19T10:49:32;93883.28;;;20.43;26.55
20037;BME280;10179;42.640;23.312;2023-02-19T10:52:08;93876.38;;;20.37;26.63
20037;BME280;10179;42.640;23.312;2023-02-19T10:54:41;93881.19;;;20.35;26.50
20037;BME280;10179;42.640;23.312;2023-02-19T10:59:50;93880.59;;;20.43;27.06
20037;BME280;10179;42.640;23.312;2023-02-19T11:02:18;93871.53;;;20.39;26.65
20037;BME280;10179;42.640;23.312;2023-02-19T11:07:38;93846.66;;;20.14;27.06
20037;BME280;10179;42.640;23.312;2023-02-19T11:10:28;93848.69;;;20.33;26.63
20037;BME280;10179;42.640;23.312;2023-02-19T11:12:58;93853.00;;;20.23;27.01
20037;BME280;10179;42.640;23.312;2023-02-19T11:15:28;93843.97;;;20.19;27.19
20037;BME280;10179;42.640;23.312;2023-02-19T11:20:24;93839.13;;;20.26;27.09
20037;BME280;10179;42.640;23.312;2023-02-19T11:22:50;93792.91;;;20.02;26.61
20037;BME280;10179;42.640;23.312;2023-02-19T11:30:31;93808.13;;;20.31;26.84
20037;BME280;10179;42.640;23.312;2023-02-19T11:33:29;93797.81;;;20.48;26.71
20037;BME280;10179;42.640;23.312;2023-02-19T11:38:41;93793.13;;;20.64;26.08
20037;BME280;10179;42.640;23.312;2023-02-19T11:46:20;93800.88;;;20.89;26.15
20037;BME280;10179;42.640;23.312;2023-02-19T11:54:31;93785.69;;;21.09;26.31
20037;BME280;10179;42.640;23.312;2023-02-19T11:57:13;93789.59;;;21.16;26.07
20037;BME280;10179;42.640;23.312;2023-02-19T11:59:45;93778.63;;;21.18;25.75
20037;BME280;10179;42.640;23.312;2023-02-19T12:10:12;93768.09;;;21.27;25.85
20037;BME280;10179;42.640;23.312;2023-02-19T12:13:01;93768.09;;;21.27;25.66
20037;BME280;10179;42.640;23.312;2023-02-19T12:15:30;93769.38;;;21.29;25.57
20037;BME280;10179;42.640;23.312;2023-02-19T12:23:32;93754.00;;;21.21;25.70
20037;BME280;10179;42.640;23.312;2023-02-19T12:26:18;93749.38;;;21.27;25.62
20037;BME280;10179;42.640;23.312;2023-02-19T12:29:07;93742.44;;;21.26;25.56
20037;BME280;10179;42.640;23.312;2023-02-19T12:32:02;93735.75;;;21.28;25.47
20037;BME280;10179;42.640;23.312;2023-02-19T12:45:32;93671.28;;;20.97;25.52
20037;BME280;10179;42.640;23.312;2023-02-19T12:50:26;93704.09;;;21.16;25.46
20037;BME280;10179;42.640;23.312;2023-02-19T12:53:09;93579.91;;;20.43;25.51
20037;BME280;10179;42.640;23.312;2023-02-19T12:55:43;93671.28;;;20.97;25.49
20037;BME280;10179;42.640;23.312;2023-02-19T12:58:15;93679.16;;;21.07;25.47
20037;BME280;10179;42.640;23.312;2023-02-19T13:00:49;93674.91;;;21.06;25.41
20037;BME280;10179;42.640;23.312;2023-02-19T13:03:26;93672.50;;;21.05;25.17
20037;BME280;10179;42.640;23.312;2023-02-19T13:06:14;93669.25;;;21.08;25.29
20037;BME280;10179;42.640;23.312;2023-02-19T13:08:47;93673.06;;;21.02;25.62
20037;BME280;10179;42.640;23.312;2023-02-19T13:13:57;93654.69;;;21.00;25.41
20037;BME280;10179;42.640;23.312;2023-02-19T13:16:25;93659.44;;;21.03;25.75
20037;BME280;10179;42.640;23.312;2023-02-19T13:18:59;93559.41;;;20.39;25.62
20037;BME280;10179;42.640;23.312;2023-02-19T13:21:27;93660.44;;;21.07;25.61
20037;BME280;10179;42.640;23.312;2023-02-19T13:24:33;93652.28;;;21.17;25.40
20037;BME280;10179;42.640;23.312;2023-02-19T13:30:21;93621.91;;;21.13;25.33
20037;BME280;10179;42.640;23.312;2023-02-19T13:38:14;93620.38;;;21.07;25.32
20037;BME280;10179;42.640;23.312;2023-02-19T13:40:42;93623.84;;;21.08;25.10
20037;BME280;10179;42.640;23.312;2023-02-19T13:43:34;93630.41;;;21.15;25.33
20037;BME280;10179;42.640;23.312;2023-02-19T13:46:07;93603.41;;;20.98;25.38
20037;BME280;10179;42.640;23.312;2023-02-19T13:48:36;93627.25;;;21.13;25.35
20037;BME280;10179;42.640;23.312;2023-02-19T14:19:55;93597.59;;;21.29;24.87
20037;BME280;10179;42.640;23.312;2023-02-19T14:25:28;93548.84;;;21.04;25.11
20037;BME280;10179;42.640;23.312;2023-02-19T14:33:09;93575.25;;;21.25;24.81
20037;BME280;10179;42.640;23.312;2023-02-19T14:35:39;93556.78;;;21.09;24.50
20037;BME280;10179;42.640;23.312;2023-02-19T14:38:06;93532.41;;;20.97;24.50
20037;BME280;10179;42.640;23.312;2023-02-19T14:40:39;93588.47;;;21.35;24.58
20037;BME280;10179;42.640;23.312;2023-02-19T14:43:12;93566.41;;;21.43;24.30
20037;BME280;10179;42.640;23.312;2023-02-19T14:45:52;93355.56;;;20.07;24.63
20037;BME280;10179;42.640;23.312;2023-02-19T14:48:34;93571.66;;;21.48;24.69
20037;BME280;10179;42.640;23.312;2023-02-19T14:51:15;93565.44;;;21.53;25.04
20037;BME280;10179;42.640;23.312;2023-02-19T14:53:45;93559.88;;;21.49;24.85
20037;BME280;10179;42.640;23.312;2023-02-19T14:56:30;93351.00;;;20.26;25.21
20037;BME280;10179;42.640;23.312;2023-02-19T15:01:39;93505.78;;;21.25;24.82
20037;BME280;10179;42.640;23.312;2023-02-19T15:04:05;93547.91;;;21.47;24.72
20037;BME280;10179;42.640;23.312;2023-02-19T15:06:33;93540.38;;;21.35;24.91